Weather reports worldwide

Advertisment
Bielsa, Spain (8103): temperature & dewpoint: 03.08.2020 22:00:00 - 09.08.2020 22:00:00 (CEST)Bielsa, Spain (8103): wind speed & gusts: 03.08.2020 22:00:00 - 09.08.2020 22:00:00 (CEST)Bielsa, Spain (8103): wind direction: 03.08.2020 22:00:00 - 09.08.2020 22:00:00 (CEST)Bielsa, Spain (8103): visibility: 03.08.2020 22:00:00 - 09.08.2020 22:00:00 (CEST)Bielsa, Spain (8103): sunshine duration: 03.08.2020 22:00:00 - 09.08.2020 22:00:00 (CEST)Bielsa, Spain (8103): precipitation: 03.08.2020 22:00:00 - 09.08.2020 22:00:00 (CEST)
Date & Time tt [°C] td [°C] ff [km/h] ff [kn] fx [km/h] fx [kn] dd vv [km] sd [min] rr [mm]
09.08.2020 22:00:00 - - - - - - - - - -
09.08.2020 21:00:00 20,8 16,4 8 4 26 14 SE - 0 0,2
09.08.2020 20:00:00 23,3 17,5 3 1 6 3 NW 20 0 -
09.08.2020 19:00:00 26,4 15,8 1 1 8 4 WNW 20 5 0,0
09.08.2020 18:00:00 29,6 16,7 2 1 8 5 S 20 23 0,0
09.08.2020 17:00:00 31,5 11,3 4 2 20 11 SE 20 33 0,0
09.08.2020 16:00:00 32,6 9,4 8 4 24 13 SSE 20 58 0,0
09.08.2020 15:00:00 29,5 13,3 4 2 27 15 SSE 20 14 0,0
09.08.2020 14:00:00 32,3 13,5 7 4 35 19 SE 20 60 -
09.08.2020 13:00:00 30,3 14,8 5 3 19 11 SE 20 60 0,0
09.08.2020 12:00:00 25,9 15,6 4 2 11 6 E 20 55 0,0
09.08.2020 11:00:00 22,5 16,7 2 1 8 4 ESE 20 45 0,0
09.08.2020 10:00:00 20,0 16,2 3 1 9 5 NW 20 57 0,0
09.08.2020 09:00:00 15,9 15,1 1 1 13 7 ESE 18 0 0,0
09.08.2020 08:00:00 15,4 14,4 2 1 22 12 S 20 0 -
09.08.2020 07:00:00 15,1 14,3 2 1 21 11 NE 20 0 0,0
09.08.2020 06:00:00 15,1 13,9 6 3 19 10 NNW 20 0 0,0
09.08.2020 05:00:00 14,9 13,9 3 2 21 12 NNW 20 0 0,0
09.08.2020 04:00:00 15,3 14,3 5 3 20 11 N 20 0 0,0
09.08.2020 03:00:00 15,6 14,6 6 4 19 10 N 20 0 0,0
09.08.2020 02:00:00 16,0 15,1 6 4 27 14 NNE 20 0 -
09.08.2020 01:00:00 16,4 15,4 6 3 22 12 N 20 0 0,0
09.08.2020 00:00:00 17,2 16,2 5 3 17 9 NNW 20 0 0,0
08.08.2020 23:00:00 17,7 16,6 4 2 26 14 W 16 0 1,4
08.08.2020 22:00:00 19,2 17,0 3 1 15 8 SE 2,7 0 5,0
08.08.2020 21:00:00 21,1 18,8 3 2 22 12 NNW 8 0 1,4
08.08.2020 20:00:00 23,0 16,6 11 6 34 18 WNW 20 0 -
08.08.2020 19:00:00 25,1 15,4 13 7 40 22 NNW 20 8 0,0
08.08.2020 18:00:00 30,4 14,5 3 2 35 19 NW 20 19 0,0
08.08.2020 17:00:00 33,0 13,2 11 6 29 16 NW 20 60 0,0
08.08.2020 16:00:00 35,1 11,4 7 4 26 14 SSE 20 60 0,0
08.08.2020 15:00:00 33,8 12,7 6 3 30 16 SE 20 56 0,0
08.08.2020 14:00:00 32,6 11,7 9 5 28 15 SE 20 60 -
08.08.2020 13:00:00 31,0 10,9 6 4 19 11 SE 20 60 0,0
08.08.2020 12:00:00 26,7 14,1 3 2 8 4 ESE 20 56 0,0
08.08.2020 11:00:00 22,2 16,5 3 2 9 5 N 20 48 0,0
08.08.2020 10:00:00 19,8 16,0 2 1 8 4 NW 20 58 0,0
08.08.2020 09:00:00 15,0 14,2 3 1 13 7 NW 20 0 0,0
08.08.2020 08:00:00 14,8 13,7 4 2 19 10 NW 20 0 -
08.08.2020 07:00:00 14,6 13,7 3 2 21 11 NW 20 0 0,0
08.08.2020 06:00:00 14,8 14,0 4 2 15 8 NW 20 0 0,0
08.08.2020 05:00:00 15,5 14,5 3 1 25 13 WNW 20 0 0,0
08.08.2020 04:00:00 15,7 14,7 1 1 16 8 N 12 0 0,0
08.08.2020 03:00:00 16,6 15,6 6 3 33 18 N 17 0 0,0
08.08.2020 02:00:00 17,0 16,0 3 1 20 11 WNW 10 0 -
08.08.2020 01:00:00 17,2 16,2 8 5 27 15 NNW 17 0 0,2
08.08.2020 00:00:00 17,7 16,2 3 2 26 14 NW 20 0 0,0
07.08.2020 23:00:00 17,9 16,6 11 6 36 20 N 20 0 0,2
07.08.2020 22:00:00 18,5 17,1 4 2 34 18 NNW 3,7 0 3,0
07.08.2020 21:00:00 19,3 17,1 10 6 29 15 NNW 8 0 4,6
07.08.2020 20:00:00 23,3 16,6 4 2 9 5 WNW 20 1 -
07.08.2020 19:00:00 25,8 16,9 6 3 20 11 WNW 20 12 0,0
07.08.2020 18:00:00 25,5 16,9 8 4 19 11 N 20 4 0,2
07.08.2020 17:00:00 27,2 18,2 8 5 25 13 NW 10 12 0,0
07.08.2020 16:00:00 35,2 10,3 7 4 29 16 SE 20 50 0,0
07.08.2020 15:00:00 34,0 11,2 6 4 34 18 SE 20 41 0,0
07.08.2020 14:00:00 33,5 9,6 6 3 27 14 ESE 20 59 -
07.08.2020 13:00:00 31,8 9,9 7 4 31 17 ESE 20 60 0,0
07.08.2020 12:00:00 28,9 11,9 9 5 22 12 SSE 20 59 0,0
07.08.2020 11:00:00 25,2 12,7 3 1 8 4 ESE 20 51 0,0
07.08.2020 10:00:00 21,7 13,1 2 1 8 5 NE 20 56 0,0
07.08.2020 09:00:00 17,5 12,6 1 1 14 8 E 20 0 0,0
07.08.2020 08:00:00 17,9 11,4 4 2 21 11 NNW 20 0 -
07.08.2020 07:00:00 16,9 11,8 2 1 21 11 SSE 20 0 0,0
07.08.2020 06:00:00 15,5 11,7 3 2 9 5 NW 20 0 0,0
07.08.2020 05:00:00 14,5 11,2 2 1 6 3 N 20 0 0,0
07.08.2020 04:00:00 14,8 11,3 1 1 7 4 NW 20 0 0,0
07.08.2020 03:00:00 15,3 11,4 2 1 6 3 NW 20 0 0,0
07.08.2020 02:00:00 16,0 11,6 1 1 10 5 E 20 0 -
07.08.2020 01:00:00 16,9 11,6 3 1 9 5 NW 20 0 0,0
07.08.2020 00:00:00 17,8 11,8 2 1 10 6 N 20 0 0,0
06.08.2020 23:00:00 18,8 11,9 1 1 8 4 N 20 0 0,0
06.08.2020 22:00:00 20,6 12,0 3 2 9 5 NW 20 0 0,0
06.08.2020 21:00:00 23,2 12,2 3 1 6 4 NW 20 0 0,0
06.08.2020 20:00:00 27,0 10,6 2 1 17 9 W 20 2 -
06.08.2020 19:00:00 32,2 8,4 6 4 23 13 SE 20 60 0,0
06.08.2020 18:00:00 34,0 7,8 7 4 23 12 SSE 20 60 0,0
06.08.2020 17:00:00 34,1 8,7 7 4 23 13 SE 20 60 0,0
06.08.2020 16:00:00 33,5 8,1 8 4 27 15 SE 20 60 0,0
06.08.2020 15:00:00 32,7 8,9 8 4 28 15 SE 20 60 0,0
06.08.2020 14:00:00 31,1 8,8 9 5 32 17 SE 20 60 -
06.08.2020 13:00:00 28,9 8,5 10 5 33 18 ESE 20 60 0,0
06.08.2020 12:00:00 26,6 9,0 9 5 23 12 S 20 59 0,0
06.08.2020 11:00:00 21,6 10,4 3 2 8 4 SE 20 45 0,0
06.08.2020 10:00:00 17,8 9,9 3 2 6 3 N 20 60 0,0
06.08.2020 09:00:00 11,1 9,6 1 1 4 2 E 20 0 0,0
06.08.2020 08:00:00 10,8 8,9 1 1 5 3 N 20 0 -
06.08.2020 07:00:00 10,8 8,8 1 1 5 3 WNW 20 0 0,0
06.08.2020 06:00:00 11,2 8,8 1 1 6 3 N 20 0 0,0
06.08.2020 05:00:00 11,7 8,9 1 1 14 8 NNE 20 0 0,0
06.08.2020 04:00:00 12,3 9,2 1 1 5 3 WNW 20 0 0,0
06.08.2020 03:00:00 12,7 9,2 2 1 11 6 WNW 20 0 0,0
06.08.2020 02:00:00 13,5 9,3 1 1 5 3 NW 20 0 -
06.08.2020 01:00:00 14,4 9,2 2 1 5 3 N 20 0 0,0
06.08.2020 00:00:00 15,7 9,8 1 1 5 3 NNW 20 0 0,0
05.08.2020 23:00:00 17,3 10,2 1 0 6 4 N 20 0 0,0
05.08.2020 22:00:00 19,2 10,5 3 1 9 5 NW 20 0 0,0
05.08.2020 21:00:00 21,9 11,0 2 1 14 8 N 20 0 0,0
05.08.2020 20:00:00 26,2 9,0 3 2 18 10 S 20 4 -
05.08.2020 19:00:00 29,9 7,1 8 4 28 15 SSE 20 60 0,0
05.08.2020 18:00:00 31,1 8,1 8 4 29 16 SE 20 60 0,0
05.08.2020 17:00:00 31,0 8,1 11 6 31 17 SSE 20 60 0,0
05.08.2020 16:00:00 31,0 8,1 8 5 34 18 SE 20 60 0,0
05.08.2020 15:00:00 30,3 8,7 8 4 31 17 SE 20 60 0,0
05.08.2020 14:00:00 29,0 9,2 8 4 32 17 SE 20 60 -
05.08.2020 13:00:00 26,8 8,3 8 5 29 16 SE 20 60 0,0
05.08.2020 12:00:00 24,6 7,7 8 4 26 14 SSE 20 60 0,0
05.08.2020 11:00:00 20,6 8,0 5 3 16 9 SE 20 50 0,0
05.08.2020 10:00:00 16,7 9,7 3 2 8 5 N 20 60 0,0
05.08.2020 09:00:00 10,4 8,5 1 1 5 3 NNW 20 1 0,0
05.08.2020 08:00:00 10,3 8,3 1 1 11 6 NNE 20 0 -
05.08.2020 07:00:00 10,4 8,1 3 2 7 4 WNW 20 0 0,0
05.08.2020 06:00:00 10,4 8,4 1 1 6 3 NNE 20 0 0,0
05.08.2020 05:00:00 11,1 8,5 1 1 7 4 WNW 20 0 0,0
05.08.2020 04:00:00 11,8 8,7 3 2 10 5 WNW 20 0 0,0
05.08.2020 03:00:00 12,4 8,9 1 1 8 4 NNW 20 0 0,0
05.08.2020 02:00:00 13,2 9,0 2 1 8 4 W 20 0 -
05.08.2020 01:00:00 14,4 9,2 2 1 16 8 NNW 20 0 0,0
05.08.2020 00:00:00 15,7 9,2 3 1 10 5 NW 20 0 0,0
04.08.2020 23:00:00 18,1 9,4 1 0 25 14 SE 20 0 0,0
04.08.2020 22:00:00 19,4 9,3 5 3 29 16 NNW 20 0 0,0
04.08.2020 21:00:00 21,4 8,7 10 6 39 21 NW 20 0 0,0
04.08.2020 20:00:00 22,8 8,1 10 5 46 25 WNW 20 4 -
04.08.2020 19:00:00 24,8 7,4 14 7 44 24 NW 20 60 0,0
04.08.2020 18:00:00 26,8 6,7 18 10 44 24 NW 20 60 0,0
04.08.2020 17:00:00 27,6 5,1 14 8 30 16 NW 20 60 0,0
04.08.2020 16:00:00 28,3 4,5 11 6 26 14 NNW 20 60 0,0
04.08.2020 15:00:00 27,4 1,7 12 7 34 18 NNW 20 60 0,0
04.08.2020 14:00:00 26,4 -0,7 15 8 37 20 NW 20 60 -
04.08.2020 13:00:00 25,5 0,9 14 8 36 20 NW 20 60 0,0
04.08.2020 12:00:00 24,4 -0,7 13 7 34 19 NW 20 60 0,0
04.08.2020 11:00:00 21,6 -0,5 9 5 24 13 NNW 20 59 0,0
04.08.2020 10:00:00 19,0 2,3 9 5 22 12 NNW 20 60 0,0
04.08.2020 09:00:00 13,3 5,1 9 5 22 12 N 20 1 0,0
04.08.2020 08:00:00 12,8 5,0 9 5 30 16 NNW 20 0 -
04.08.2020 07:00:00 13,4 5,3 6 4 29 16 NW 20 0 0,0
04.08.2020 06:00:00 15,3 5,5 10 6 30 16 NW 20 0 0,0
04.08.2020 05:00:00 15,8 5,1 11 6 32 17 NW 20 0 0,0
04.08.2020 04:00:00 14,8 5,3 10 5 31 17 NW 20 0 0,0
04.08.2020 03:00:00 15,6 5,5 11 6 36 19 NW 20 0 0,0
04.08.2020 02:00:00 17,2 5,5 13 7 39 21 NW 20 0 -
04.08.2020 01:00:00 17,3 5,9 12 7 38 21 NNW 20 0 0,0
04.08.2020 00:00:00 17,5 5,8 11 6 33 18 NW 20 0 0,0
03.08.2020 23:00:00 17,7 6,5 10 5 32 17 NW 20 0 0,0
03.08.2020 22:00:00 18,2 7,3 8 5 33 18 WNW 20 0 0,0

tt = temperature
td = dewpoint
ff = wind speed
fx = gusts
dd = wind direction
vv = visibility
sd = sunshine duration
rr = precipitation

Next stations